地図

経路データ

SID SEASON NUMBER BASIN SUBBASIN NAME ISO_TIME NATURE LAT LON WMO_WIND WMO_PRES WMO_AGENCY TRACK_TYPE DIST2LAND LANDFALL IFLAG USA_AGENCY USA_ATCF_ID USA_LAT USA_LON USA_RECORD USA_STATUS USA_WIND USA_PRES USA_SSHS USA_R34_NE USA_R34_SE USA_R34_SW USA_R34_NW USA_R50_NE USA_R50_SE USA_R50_SW USA_R50_NW USA_R64_NE USA_R64_SE USA_R64_SW USA_R64_NW USA_POCI USA_ROCI USA_RMW USA_EYE TOKYO_LAT TOKYO_LON TOKYO_GRADE TOKYO_WIND TOKYO_PRES TOKYO_R50_DIR TOKYO_R50_LONG TOKYO_R50_SHORT TOKYO_R30_DIR TOKYO_R30_LONG TOKYO_R30_SHORT TOKYO_LAND CMA_LAT CMA_LON CMA_CAT CMA_WIND CMA_PRES HKO_LAT HKO_LON HKO_CAT HKO_WIND HKO_PRES NEWDELHI_LAT NEWDELHI_LON NEWDELHI_GRADE NEWDELHI_WIND NEWDELHI_PRES NEWDELHI_CI NEWDELHI_DP NEWDELHI_POCI REUNION_LAT REUNION_LON REUNION_TYPE REUNION_WIND REUNION_PRES REUNION_TNUM REUNION_CI REUNION_RMW REUNION_R34_NE REUNION_R34_SE REUNION_R34_SW REUNION_R34_NW REUNION_R50_NE REUNION_R50_SE REUNION_R50_SW REUNION_R50_NW REUNION_R64_NE REUNION_R64_SE REUNION_R64_SW REUNION_R64_NW BOM_LAT BOM_LON BOM_TYPE BOM_WIND BOM_PRES BOM_TNUM BOM_CI BOM_RMW BOM_R34_NE BOM_R34_SE BOM_R34_SW BOM_R34_NW BOM_R50_NE BOM_R50_SE BOM_R50_SW BOM_R50_NW BOM_R64_NE BOM_R64_SE BOM_R64_SW BOM_R64_NW BOM_ROCI BOM_POCI BOM_EYE BOM_POS_METHOD BOM_PRES_METHOD NADI_LAT NADI_LON NADI_CAT NADI_WIND NADI_PRES WELLINGTON_LAT WELLINGTON_LON WELLINGTON_WIND WELLINGTON_PRES DS824_LAT DS824_LON DS824_STAGE DS824_WIND DS824_PRES TD9636_LAT TD9636_LON TD9636_STAGE TD9636_WIND TD9636_PRES TD9635_LAT TD9635_LON TD9635_WIND TD9635_PRES TD9635_ROCI NEUMANN_LAT NEUMANN_LON NEUMANN_CLASS NEUMANN_WIND NEUMANN_PRES MLC_LAT MLC_LON MLC_CLASS MLC_WIND MLC_PRES USA_GUST BOM_GUST BOM_GUST_PER REUNION_GUST REUNION_GUST_PER USA_SEAHGT USA_SEARAD_NE USA_SEARAD_SE USA_SEARAD_SW USA_SEARAD_NW STORM_SPEED STORM_DIR
1913052S10060 1913 17 SI MM NOT_NAMED 1913-02-21 06:00:00 NR -10.4000 60.4000 reunion main 1123 1120 _____O________ -1 -10.4000 60.4000 99 9.90000 2 261
1913052S10060 1913 17 SI MM NOT_NAMED 1913-02-21 09:00:00 NR -10.4191 60.2776 main 1120 1118 _____P________ -1 -10.4191 60.2776 99 3 260
1913052S10060 1913 17 SI MM NOT_NAMED 1913-02-21 12:00:00 NR -10.4423 60.1478 main 1115 1102 _____P________ -1 -10.4423 60.1478 99 3 258
1913052S10060 1913 17 SI MM NOT_NAMED 1913-02-21 15:00:00 NR -10.4737 60.0033 main 1102 1100 _____P________ -1 -10.4737 60.0033 99 3 251
1913052S10060 1913 17 SI MM NOT_NAMED 1913-02-21 18:00:00 NR -10.5341 59.8693 main 1100 1084 _____P____O___ -1 -10.5177 59.8367 99 -10.6000 60.0000 7 3 246
1913052S10060 1913 17 SI MM NOT_NAMED 1913-02-21 21:00:00 NR -10.6078 59.6915 main 1084 1069 _____P____P___ -1 -10.5782 59.6405 99 -10.6671 59.7936 7 4 247
1913052S10060 1913 17 SI MM NOT_NAMED 1913-02-22 00:00:00 NR -10.6970 59.4769 main 1069 1042 _____P____P___ -1 -10.6593 59.4073 99 -10.7473 59.5698 7 5 246
1913052S10060 1913 17 SI MM NOT_NAMED 1913-02-22 03:00:00 NR -10.8096 59.2204 main 1042 1007 _____P____P___ -1 -10.7653 59.1297 99 -10.8539 59.3111 7 6 245
1913052S10060 1913 17 SI MM NOT_NAMED 1913-02-22 06:00:00 TS -10.9556 58.9111 reunion main 1004 969 _____O___OO___ -1 -10.9000 58.8000 99 9.90000 -11.0000 59.0000 TC 25 -11.0000 59.0000 7 8 243
1913052S10060 1913 17 SI MM NOT_NAMED 1913-02-22 09:00:00 TS -11.1553 58.5376 main 956 918 _____P___PP___ -1 -11.0671 58.4157 99 -11.2526 58.6026 TC 25 -11.1949 58.6270 7 9 240
1913052S10060 1913 17 SI MM NOT_NAMED 1913-02-22 12:00:00 TS -11.3914 58.1305 main 908 860 _____P___OP___ -1 -11.2686 57.9936 99 -11.5000 58.2000 TC 25 -11.4328 58.2152 7 9 238
1913052S10060 1913 17 SI MM NOT_NAMED 1913-02-22 15:00:00 TS -11.6509 57.7146 main 857 809 _____P___PP___ -1 -11.5060 57.5558 99 -11.7425 57.7924 TC 25 -11.7043 57.7957 7 10 236
1913052S10060 1913 17 SI MM NOT_NAMED 1913-02-22 18:00:00 TS -11.9271 57.3080 main 809 758 _____P___OO___ -1 -11.7812 57.1241 99 -12.0000 57.4000 TC 25 -12.0000 57.4000 7 10 234
1913052S10060 1913 17 SI MM NOT_NAMED 1913-02-22 21:00:00 TS -12.2092 56.9222 main 758 719 _____P___PP___ -1 -12.0961 56.7205 99 -12.2850 57.0275 TC 25 -12.2466 57.0185 7 9 230
1913052S10060 1913 17 SI MM NOT_NAMED 1913-02-23 00:00:00 TS -12.5251 56.5800 main 719 680 _____P___OP___ -1 -12.4528 56.3672 99 -12.6000 56.7000 TC 25 -12.5226 56.6728 7 9 223
1913052S10060 1913 17 SI MM NOT_NAMED 1913-02-23 03:00:00 TS -12.8710 56.2964 main 676 640 _____P___PP___ -1 -12.8533 56.0862 99 -12.8975 56.4124 TC 25 -12.8623 56.3907 7 9 211
1913052S10060 1913 17 SI MM NOT_NAMED 1913-02-23 06:00:00 TS -13.3000 56.1000 reunion main 640 612 _____O___OO___ -1 -13.3000 55.9000 99 9.90000 -13.3000 56.2000 TC 25 -13.3000 56.2000 7 11 196
1913052S10060 1913 17 SI MM NOT_NAMED 1913-02-23 09:00:00 TS -13.8724 55.9956 main 609 596 _____P___PP___ -1 -13.8295 55.8634 99 -13.8975 56.0402 TC 25 -13.8903 56.0832 7 12 185
1913052S10060 1913 17 SI MM NOT_NAMED 1913-02-23 12:00:00 TS -14.5300 55.9936 main 596 567 _____P___OP___ -1 -14.4154 55.9177 99 -14.6000 56.0000 TC 25 -14.5746 56.0632 7 14 176
1913052S10060 1913 17 SI MM NOT_NAMED 1913-02-23 15:00:00 TS -15.2145 56.0920 main 567 486 _____P___PP___ -1 -15.0395 56.0496 99 -15.3075 56.0899 TC 25 -15.2966 56.1365 7 14 168
1913052S10060 1913 17 SI MM NOT_NAMED 1913-02-23 18:00:00 TS -15.8946 56.2820 main 486 416 _____P___OO___ -1 -15.6838 56.2459 99 -16.0000 56.3000 TC 25 -16.0000 56.3000 7 14 162
1913052S10060 1913 17 SI MM NOT_NAMED 1913-02-23 21:00:00 TS -16.5283 56.5323 main 416 343 _____P___PP___ -1 -16.3301 56.4929 99 -16.6225 56.5701 TC 25 -16.6323 56.5338 7 14 156
1913052S10060 1913 17 SI MM NOT_NAMED 1913-02-24 00:00:00 TS -17.1310 56.8428 main 343 270 _____P___OP___ -1 -16.9603 56.7770 99 -17.2000 56.9000 TC 25 -17.2327 56.8514 7 13 152
1913052S10060 1913 17 SI MM NOT_NAMED 1913-02-24 03:00:00 TS -17.7093 57.1817 main 270 212 _____P___PP___ -1 -17.5563 57.0841 99 -17.7800 57.2425 TC 25 -17.7917 57.2184 7 13 149
1913052S10060 1913 17 SI MM NOT_NAMED 1913-02-24 06:00:00 TS -18.2333 57.5333 reunion main 212 156 _____O___OO___ -1 -18.1000 57.4000 99 9.90000 -18.3000 57.6000 TC 25 -18.3000 57.6000 7 12 146
1913052S10060 1913 17 SI MM NOT_NAMED 1913-02-24 09:00:00 TS -18.6793 57.8605 main 158 123 _____P___PP___ -1 -18.5407 57.6680 99 -18.7224 57.9503 TC 25 -18.7747 57.9633 7 11 143
1913052S10060 1913 17 SI MM NOT_NAMED 1913-02-24 12:00:00 TS -19.0781 58.1953 main 123 107 _____P___OP___ -1 -18.9366 57.9559 99 -19.1000 58.3000 TC 25 -19.1976 58.3301 7 10 141
1913052S10060 1913 17 SI MM NOT_NAMED 1913-02-24 15:00:00 TS -19.4626 58.5376 main 107 107 _____P___PP___ -1 -19.2937 58.2585 99 -19.5225 58.6724 TC 25 -19.5716 58.6819 7 10 139
1913052S10060 1913 17 SI MM NOT_NAMED 1913-02-24 18:00:00 TS -19.8059 58.8568 main 127 123 _____P___OO___ -1 -19.6177 58.5703 99 -19.9000 59.0000 TC 25 -19.9000 59.0000 7 8 139
1913052S10060 1913 17 SI MM NOT_NAMED 1913-02-24 21:00:00 TS -20.0913 59.1241 main 137 137 _____P___PP___ -1 -19.9145 58.8859 99 -20.1723 59.2153 TC 25 -20.1871 59.2710 7 7 138
1913052S10060 1913 17 SI MM NOT_NAMED 1913-02-25 00:00:00 TS -20.3287 59.3506 main 166 166 _____P___OP___ -1 -20.1899 59.1997 99 -20.4000 59.4000 TC 25 -20.4424 59.5025 7 6 137
1913052S10060 1913 17 SI MM NOT_NAMED 1913-02-25 03:00:00 TS -20.5547 59.5881 main 190 190 _____P___PP___ -1 -20.4497 59.5062 99 -20.6427 59.6322 TC 25 -20.6765 59.7077 7 6 134
1913052S10060 1913 17 SI MM NOT_NAMED 1913-02-25 06:00:00 TS -20.7667 59.8333 reunion main 215 215 _____O___OO___ -1 -20.7000 59.8000 99 9.90000 -20.9000 59.9000 TC 25 -20.9000 59.9000 7 6 131
1913052S10060 1913 17 SI MM NOT_NAMED 1913-02-25 09:00:00 NR -20.9457 60.0768 main 248 248 _____P________ -1 -20.9457 60.0768 99 TC 7 6 132
1913052S10060 1913 17 SI MM NOT_NAMED 1913-02-25 12:00:00 NR -21.1881 60.3378 main 278 278 _____P________ -1 -21.1881 60.3378 99 7 7 136
1913052S10060 1913 17 SI MM NOT_NAMED 1913-02-25 15:00:00 NR -21.4278 60.5851 main 315 315 _____P________ -1 -21.4278 60.5851 99 7 7 137
1913052S10060 1913 17 SI MM NOT_NAMED 1913-02-25 18:00:00 NR -21.6652 60.8211 main 348 348 _____P________ -1 -21.6652 60.8211 99 6 138
1913052S10060 1913 17 SI MM NOT_NAMED 1913-02-25 21:00:00 NR -21.9007 61.0482 main 376 376 _____P________ -1 -21.9007 61.0482 99 6 139
1913052S10060 1913 17 SI MM NOT_NAMED 1913-02-26 00:00:00 NR -22.1347 61.2688 main 413 413 _____P________ -1 -22.1347 61.2688 99 6 139
1913052S10060 1913 17 SI MM NOT_NAMED 1913-02-26 03:00:00 NR -22.3677 61.4853 main 446 446 _____P________ -1 -22.3677 61.4853 99 6 139
1913052S10060 1913 17 SI MM NOT_NAMED 1913-02-26 06:00:00 NR -22.6000 61.7000 reunion main 475 _____O________ -1 -22.6000 61.7000 99 9.90000 6 140

IBTrACS Databaseについて

本データベースは、米国NOAAが公開する1842年以降の世界の熱帯低気圧のベストトラックデータアーカイブInternational Best Track Archive for Climate Stewardship (IBTrACS)を、ウェブで閲覧しやすい形式に変換したものです。

最終更新日:2021-12-01